Time;durP1;ratioP1;P1;durP2;ratioP2;P2;SDS_P1;SDS_P2;PMS_P1;PMS_P2;Temp;Humidity;BMP_temperature;BMP_pressure;BME280_temperature;BME280_humidity;BME280_pressure;Samples;Min_cycle;Max_cycle;Signal;HPM_P1;HPM_P2
2022/06/07 00:02:09;;;;;;;2.63;1.33;;;;;;;21.43;43.19;101158.72;5004763;28;20383;-66
2022/06/07 00:04:35;;;;;;;3.13;1.52;;;;;;;21.42;43.54;101159.72;5005341;28;20073;-67
2022/06/07 00:07:01;;;;;;;2.42;1.50;;;;;;;21.43;43.51;101153.25;5006833;28;20053;-67
2022/06/07 00:09:26;;;;;;;4.82;1.40;;;;;;;21.46;43.42;101157.47;4999641;28;20034;-67
2022/06/07 00:11:52;;;;;;;2.15;1.20;;;;;;;21.50;43.64;101153.31;4997541;28;20391;-67
2022/06/07 00:14:18;;;;;;;4.25;1.38;;;;;;;21.54;43.22;101149.19;4997435;28;20026;-67
2022/06/07 00:16:43;;;;;;;4.32;1.75;;;;;;;21.60;43.28;101147.56;4997438;28;20391;-67
2022/06/07 00:19:08;;;;;;;1.83;1.25;;;;;;;21.63;43.58;101141.72;4997196;28;20030;-67
2022/06/07 00:21:34;;;;;;;5.47;1.40;;;;;;;21.67;43.56;101145.72;4995794;28;20038;-66
2022/06/07 00:24:00;;;;;;;2.33;1.42;;;;;;;21.70;43.83;101140.75;4997274;28;20022;-67
2022/06/07 00:26:27;;;;;;;2.72;1.10;;;;;;;21.73;44.03;101140.34;4979550;28;20475;-67
2022/06/07 00:28:52;;;;;;;4.88;1.33;;;;;;;21.77;43.03;101141.69;4997501;28;20454;-67
2022/06/07 00:31:18;;;;;;;2.97;2.10;;;;;;;21.80;44.00;101134.97;4996926;28;20050;-67
2022/06/07 00:33:43;;;;;;;2.40;1.05;;;;;;;21.82;43.05;101130.16;4995751;28;20080;-66
2022/06/07 00:36:09;;;;;;;1.08;1.05;;;;;;;21.80;43.81;101135.81;4997012;28;20042;-67
2022/06/07 00:38:34;;;;;;;4.57;1.40;;;;;;;21.81;43.36;101133.94;4995436;28;20137;-67
2022/06/07 00:41:00;;;;;;;3.65;0.80;;;;;;;21.82;43.96;101136.47;4996621;28;20038;-67
2022/06/07 00:43:26;;;;;;;1.95;1.30;;;;;;;21.83;43.26;101131.88;4996724;28;20561;-67
2022/06/07 00:45:51;;;;;;;2.28;0.80;;;;;;;21.82;43.66;101135.63;4996789;28;20054;-66
2022/06/07 00:48:16;;;;;;;3.13;1.15;;;;;;;21.84;43.32;101122.63;4996765;28;20022;-67
2022/06/07 00:50:54;;;;;;;1.35;1.10;;;;;;;21.85;43.35;101132.50;4996621;28;20113;-67
2022/06/07 00:53:21;;;;;;;3.90;1.25;;;;;;;21.83;43.81;101116.31;4995969;28;20026;-66
2022/06/07 00:55:47;;;;;;;6.55;1.52;;;;;;;21.84;43.81;101128.09;4996860;28;20092;-67
2022/06/07 00:58:12;;;;;;;3.13;1.50;;;;;;;21.83;43.61;101121.78;4996261;28;20054;-67
2022/06/07 01:00:38;;;;;;;4.07;1.27;;;;;;;21.82;43.96;101116.53;4995526;28;20475;-67
2022/06/07 01:03:03;;;;;;;2.28;1.08;;;;;;;21.83;44.06;101118.22;4996490;28;20033;-67
2022/06/07 01:05:28;;;;;;;2.10;1.15;;;;;;;21.82;42.95;101111.06;4996346;28;20026;-67
2022/06/07 01:10:43;;;;;;;3.97;1.40;;;;;;;21.79;43.48;101114.19;4996286;28;20470;-67
2022/06/07 01:13:09;;;;;;;2.65;1.30;;;;;;;21.76;43.52;101114.56;4996666;28;20026;-66
2022/06/07 01:15:35;;;;;;;5.07;1.50;;;;;;;21.74;43.68;101103.03;4996053;28;20476;-67
2022/06/07 01:18:01;;;;;;;5.53;1.48;;;;;;;21.75;43.79;101112.88;4995758;28;20029;-67
2022/06/07 01:20:28;;;;;;;3.55;1.20;;;;;;;21.73;43.81;101110.34;4996114;28;20380;-66
2022/06/07 01:22:54;;;;;;;1.65;1.02;;;;;;;21.74;43.72;101106.59;4996226;28;20030;-67
2022/06/07 01:25:19;;;;;;;2.33;1.00;;;;;;;21.71;43.32;101111.59;4995919;28;20026;-67
2022/06/07 01:27:44;;;;;;;8.98;1.38;;;;;;;21.69;43.68;101108.22;4996347;28;20061;-67
2022/06/07 01:30:11;;;;;;;10.48;1.58;;;;;;;21.67;43.45;101104.81;4995887;28;20026;-66
2022/06/07 01:32:36;;;;;;;3.17;1.05;;;;;;;21.66;42.96;101114.06;4996447;28;20026;-67
2022/06/07 01:35:02;;;;;;;4.63;2.03;;;;;;;21.65;42.77;101104.19;4996015;28;20030;-66
2022/06/07 01:37:27;;;;;;;2.85;1.20;;;;;;;21.64;43.01;101105.22;4996371;28;20026;-67
2022/06/07 01:42:36;;;;;;;1.80;1.23;;;;;;;21.60;42.79;101103.94;4995747;28;20036;-67
2022/06/07 01:45:02;;;;;;;3.97;1.27;;;;;;;21.58;42.98;101100.56;4995688;28;20386;-67
2022/06/07 01:47:32;;;;;;;3.38;1.35;;;;;;;21.57;43.44;101099.72;4995664;28;20033;-67
2022/06/07 01:49:58;;;;;;;3.78;1.48;;;;;;;21.58;42.79;101095.94;4995689;28;20027;-67
2022/06/07 01:52:26;;;;;;;1.85;1.42;;;;;;;21.57;43.50;101088.81;4995169;28;20100;-67
2022/06/07 01:54:51;;;;;;;4.03;1.95;;;;;;;21.57;42.99;101090.69;4995829;28;20395;-67
2022/06/07 01:57:17;;;;;;;5.40;2.25;;;;;;;21.55;43.37;101087.31;4995104;28;20054;-67
2022/06/07 01:59:43;;;;;;;2.97;1.65;;;;;;;21.53;43.42;101082.03;4994429;28;20060;-67
2022/06/07 02:02:09;;;;;;;3.90;1.35;;;;;;;21.52;42.78;101083.09;4995182;28;20068;-67
2022/06/07 02:04:38;;;;;;;4.60;1.30;;;;;;;21.52;43.60;101087.69;4995100;28;20058;-67
2022/06/07 02:07:04;;;;;;;1.75;1.40;;;;;;;21.49;43.14;101080.75;4994683;28;20487;-67
2022/06/07 02:09:30;;;;;;;2.30;1.80;;;;;;;21.48;43.01;101084.50;4994982;28;20109;-67
2022/06/07 02:11:55;;;;;;;4.15;1.70;;;;;;;21.44;42.55;101089.50;4995228;28;20084;-67
2022/06/07 02:14:21;;;;;;;9.80;1.52;;;;;;;21.38;42.77;101078.53;4994744;28;20026;-67
2022/06/07 02:16:46;;;;;;;2.17;1.63;;;;;;;21.33;42.97;101084.56;4994236;28;20471;-67
2022/06/07 02:19:12;;;;;;;3.40;1.50;;;;;;;21.29;43.23;101085.16;4995346;28;20026;-67
2022/06/07 02:21:39;;;;;;;7.18;1.55;;;;;;;21.25;43.55;101076.50;4995213;28;20034;-67
2022/06/07 02:24:05;;;;;;;3.47;1.58;;;;;;;21.23;43.20;101072.28;4995705;28;20026;-66
2022/06/07 02:26:56;;;;;;;6.20;1.20;;;;;;;21.22;43.14;101073.31;4977761;28;20049;-67
2022/06/07 02:29:25;;;;;;;4.15;2.35;;;;;;;21.18;43.49;101072.03;4995078;28;20475;-67
2022/06/07 02:31:57;;;;;;;2.30;1.10;;;;;;;21.18;43.17;101069.28;4994359;28;20443;-67
2022/06/07 02:34:23;;;;;;;2.45;1.63;;;;;;;21.17;43.40;101073.91;4995404;28;20090;-67
2022/06/07 02:36:50;;;;;;;3.17;1.98;;;;;;;21.18;43.58;101067.44;4993654;28;20045;-67
2022/06/07 02:39:16;;;;;;;3.50;1.10;;;;;;;21.16;43.31;101066.75;4993739;28;20109;-67
2022/06/07 02:41:42;;;;;;;3.67;1.50;;;;;;;21.16;43.78;101074.91;4994797;28;20030;-67
2022/06/07 02:44:07;;;;;;;2.20;1.92;;;;;;;21.17;43.70;101068.44;4994732;28;20069;-67
2022/06/07 02:46:33;;;;;;;1.65;1.23;;;;;;;21.15;43.06;101073.25;4995061;28;20064;-67
2022/06/07 02:48:58;;;;;;;2.65;1.30;;;;;;;21.16;43.46;101064.03;4994656;28;20018;-67
2022/06/07 02:51:24;;;;;;;3.97;1.23;;;;;;;21.15;43.40;101066.94;4993493;28;20113;-66
2022/06/07 02:53:49;;;;;;;5.45;1.50;;;;;;;21.15;43.72;101073.25;4994789;28;20018;-67
2022/06/07 02:56:14;;;;;;;7.60;1.48;;;;;;;21.14;43.53;101066.09;4993425;28;20080;-67
2022/06/07 02:58:40;;;;;;;6.18;1.33;;;;;;;21.12;43.48;101068.19;4993072;28;20046;-67
2022/06/07 03:01:05;;;;;;;3.58;1.23;;;;;;;21.09;43.51;101074.00;4994361;28;20030;-67
2022/06/07 03:03:30;;;;;;;2.03;1.33;;;;;;;21.06;43.25;101071.63;4994642;28;20033;-67
2022/06/07 03:05:56;;;;;;;5.15;1.70;;;;;;;21.02;43.41;101070.31;4998239;28;20049;-67
2022/06/07 03:08:22;;;;;;;2.70;1.52;;;;;;;20.97;43.01;101064.59;4998355;28;20030;-67
2022/06/07 03:10:48;;;;;;;3.22;1.98;;;;;;;20.94;43.35;101070.44;4998179;28;20037;-67
2022/06/07 03:13:15;;;;;;;3.90;1.60;;;;;;;20.90;43.28;101074.59;4998170;28;20080;-67
2022/06/07 03:15:41;;;;;;;6.70;1.50;;;;;;;20.87;43.71;101074.97;4998157;28;20022;-67
2022/06/07 03:18:07;;;;;;;7.07;2.30;;;;;;;20.82;43.35;101069.25;4998246;28;20447;-67
2022/06/07 03:20:33;;;;;;;2.47;1.20;;;;;;;20.81;43.71;101064.81;4997899;28;20068;-67
2022/06/07 03:22:59;;;;;;;3.83;1.67;;;;;;;20.77;43.90;101074.44;4998268;28;20105;-67
2022/06/07 03:25:24;;;;;;;3.80;2.03;;;;;;;20.76;43.37;101070.00;4997840;28;20031;-67
2022/06/07 03:27:50;;;;;;;5.63;1.80;;;;;;;20.74;43.85;101069.34;4998304;28;20037;-67
2022/06/07 03:30:16;;;;;;;3.85;1.88;;;;;;;20.74;44.24;101074.81;4997572;28;20027;-67
2022/06/07 03:32:42;;;;;;;4.55;1.95;;;;;;;20.73;43.55;101073.09;4998119;28;20026;-67
2022/06/07 03:35:08;;;;;;;2.47;1.52;;;;;;;20.72;43.82;101076.84;4997842;28;20360;-67
2022/06/07 03:37:34;;;;;;;2.75;1.45;;;;;;;20.74;43.96;101081.06;4997690;28;20119;-67
2022/06/07 03:39:59;;;;;;;6.53;1.40;;;;;;;20.76;44.00;101079.03;4997581;28;20531;-67
2022/06/07 03:42:24;;;;;;;4.15;1.65;;;;;;;20.79;44.12;101088.69;4997549;28;20026;-67
2022/06/07 03:44:50;;;;;;;6.88;1.70;;;;;;;20.81;44.14;101090.19;4997387;28;20114;-66
2022/06/07 03:47:16;;;;;;;2.00;1.77;;;;;;;20.80;44.27;101083.03;4996293;28;20438;-66
2022/06/07 03:49:42;;;;;;;4.45;2.20;;;;;;;20.79;44.09;101084.09;4997476;28;20080;-67
2022/06/07 03:52:07;;;;;;;5.13;1.65;;;;;;;20.79;43.88;101088.69;4997603;28;20101;-66
2022/06/07 03:54:33;;;;;;;6.35;1.75;;;;;;;20.76;44.20;101089.06;4996571;28;20041;-67
2022/06/07 03:56:58;;;;;;;7.55;1.48;;;;;;;20.75;43.96;101090.94;4996237;28;20117;-67
2022/06/07 03:59:24;;;;;;;2.47;1.88;;;;;;;20.74;44.08;101091.97;4997574;28;20034;-67
2022/06/07 04:01:50;;;;;;;3.17;1.58;;;;;;;20.74;44.40;101093.84;4997607;28;20031;-67
2022/06/07 04:04:16;;;;;;;7.97;2.22;;;;;;;20.73;44.22;101093.00;4997574;28;20029;-67
2022/06/07 04:09:28;;;;;;;3.28;2.40;;;;;;;20.73;44.46;101105.78;4997520;28;20038;-67
2022/06/07 04:11:53;;;;;;;1.90;1.70;;;;;;;20.71;44.06;101096.97;4996300;28;20042;-67
2022/06/07 04:14:18;;;;;;;3.22;2.00;;;;;;;20.71;43.56;101092.38;4996857;28;20030;-66
2022/06/07 04:16:44;;;;;;;4.18;1.95;;;;;;;20.71;43.96;101094.22;4997610;28;20022;-67
2022/06/07 04:19:09;;;;;;;7.22;2.38;;;;;;;20.70;43.78;101095.25;4997526;28;20018;-67
2022/06/07 04:21:34;;;;;;;4.85;1.67;;;;;;;20.74;44.23;101093.84;4995933;28;20097;-67
2022/06/07 04:24:00;;;;;;;5.65;1.95;;;;;;;20.81;43.81;101086.59;4996794;28;20030;-67
2022/06/07 04:26:26;;;;;;;4.28;1.98;;;;;;;20.86;44.07;101089.59;4997087;28;20026;-67
2022/06/07 04:28:52;;;;;;;7.53;2.22;;;;;;;20.96;44.03;101090.19;4997511;28;20475;-67
2022/06/07 04:31:19;;;;;;;3.22;1.83;;;;;;;21.03;43.92;101085.63;4997151;28;20122;-67
2022/06/07 04:33:45;;;;;;;3.92;2.45;;;;;;;21.11;43.81;101092.88;4997009;28;20050;-67
2022/06/07 04:36:12;;;;;;;7.65;2.40;;;;;;;21.21;44.08;101096.16;4997154;28;20041;-65
2022/06/07 04:38:39;;;;;;;6.30;2.53;;;;;;;21.35;43.59;101092.56;4996532;28;20030;-67
2022/06/07 04:41:11;;;;;;;4.63;2.42;;;;;;;21.46;43.61;101087.44;4996474;28;20080;-67
2022/06/07 04:43:37;;;;;;;4.38;2.58;;;;;;;21.50;43.78;101096.06;4996725;28;20072;-67
2022/06/07 04:46:07;;;;;;;5.07;2.30;;;;;;;21.50;43.49;101095.25;4996607;28;20026;-67
2022/06/07 04:48:33;;;;;;;5.78;2.33;;;;;;;21.63;43.88;101098.09;4996679;28;20023;-67
2022/06/07 04:51:06;;;;;;;5.20;2.70;;;;;;;21.80;44.01;101104.97;4996580;28;20025;-67
2022/06/07 04:53:32;;;;;;;4.50;1.73;;;;;;;21.93;43.62;101105.13;4996668;28;20021;-67
2022/06/07 04:55:59;;;;;;;3.25;1.80;;;;;;;22.07;43.62;101098.75;4996571;28;20022;-66
2022/06/07 04:58:26;;;;;;;5.60;2.13;;;;;;;22.20;42.77;101087.94;4994644;28;20054;-67
2022/06/07 05:00:51;;;;;;;4.75;1.70;;;;;;;22.28;43.30;101098.69;4996562;28;20471;-67
2022/06/07 05:03:16;;;;;;;4.32;1.95;;;;;;;22.43;43.72;101091.25;4996243;28;20037;-67
2022/06/07 05:05:42;;;;;;;2.92;1.65;;;;;;;22.59;43.29;101084.63;4996130;28;20037;-67
2022/06/07 05:08:07;;;;;;;3.80;1.92;;;;;;;22.73;43.14;101096.50;4995030;28;20469;-67
2022/06/07 05:10:33;;;;;;;1.85;1.65;;;;;;;22.74;42.41;101092.72;4995962;28;20042;-67
2022/06/07 05:12:58;;;;;;;4.70;1.58;;;;;;;22.92;43.20;101090.31;4996130;28;20029;-66
2022/06/07 05:15:23;;;;;;;2.83;1.55;;;;;;;23.01;42.27;101094.53;4996062;28;20053;-67
2022/06/07 05:17:49;;;;;;;4.82;1.70;;;;;;;23.01;43.39;101089.06;4996503;28;20054;-65
2022/06/07 05:20:14;;;;;;;6.78;1.98;;;;;;;23.15;43.07;101093.53;4996607;28;20072;-67
2022/06/07 05:22:40;;;;;;;4.13;1.48;;;;;;;23.42;42.28;101094.53;4995125;28;20025;-66
2022/06/07 05:25:05;;;;;;;2.60;1.15;;;;;;;23.63;42.62;101100.66;4996263;28;20027;-67
2022/06/07 05:27:36;;;;;;;2.00;1.25;;;;;;;23.68;42.11;101091.81;4995574;28;20041;-67
2022/06/07 05:30:02;;;;;;;4.55;1.42;;;;;;;23.61;42.56;101090.97;4994989;28;20042;-67
2022/06/07 05:32:27;;;;;;;2.70;1.70;;;;;;;23.57;42.30;101096.00;4996435;28;20045;-67
2022/06/07 05:34:53;;;;;;;2.03;1.35;;;;;;;23.59;42.38;101093.91;4996213;28;20034;-66
2022/06/07 05:37:20;;;;;;;4.22;2.03;;;;;;;23.61;42.82;101091.84;4994506;28;20022;-66
2022/06/07 05:39:46;;;;;;;4.18;1.48;;;;;;;23.62;42.67;101104.44;4995711;28;20076;-67
2022/06/07 05:42:12;;;;;;;3.83;1.38;;;;;;;23.66;42.81;101099.41;4995536;28;20026;-67
2022/06/07 05:44:38;;;;;;;2.88;1.42;;;;;;;23.65;41.86;101104.03;4995391;28;20484;-67
2022/06/07 05:47:04;;;;;;;4.47;1.60;;;;;;;23.61;41.97;101113.72;4995338;28;20177;-67
2022/06/07 05:49:29;;;;;;;1.52;1.05;;;;;;;23.59;43.00;101104.03;4994076;28;20125;-67
2022/06/07 05:51:55;;;;;;;2.13;1.08;;;;;;;23.59;41.99;101106.78;4995234;28;20450;-67
2022/06/07 05:54:20;;;;;;;3.70;1.40;;;;;;;23.56;42.23;101116.19;4995743;28;20089;-67
2022/06/07 05:56:46;;;;;;;3.65;1.33;;;;;;;23.56;42.09;101105.25;4995577;28;20061;-66
2022/06/07 05:59:11;;;;;;;1.92;1.10;;;;;;;23.60;42.95;101112.03;4994504;28;20030;-66
2022/06/07 06:01:37;;;;;;;2.30;0.85;;;;;;;23.60;42.35;101125.69;4994506;28;20030;-67
2022/06/07 06:04:03;;;;;;;5.00;1.20;;;;;;;23.64;42.91;101120.66;4994628;28;20034;-67
2022/06/07 06:06:29;;;;;;;4.68;1.50;;;;;;;23.72;41.76;101113.09;4995888;28;20050;-67
2022/06/07 06:11:38;;;;;;;2.70;1.70;;;;;;;23.79;41.72;101115.81;4995401;28;20045;-66
2022/06/07 06:14:04;;;;;;;6.70;1.77;;;;;;;24.05;41.33;101118.59;4995384;28;20395;-66
2022/06/07 06:16:30;;;;;;;2.13;1.40;;;;;;;24.00;42.11;101107.44;4995030;28;20026;-66
2022/06/07 06:18:57;;;;;;;3.15;1.60;;;;;;;23.97;42.15;101117.97;4994208;28;20031;-66
2022/06/07 06:21:25;;;;;;;3.78;1.10;;;;;;;23.96;42.20;101116.25;4995014;28;20455;-66
2022/06/07 06:23:51;;;;;;;2.60;1.30;;;;;;;23.97;41.68;101117.97;4995418;28;20022;-66
2022/06/07 06:26:18;;;;;;;3.55;1.13;;;;;;;23.94;42.00;101112.91;4995404;28;20030;-66
2022/06/07 06:28:44;;;;;;;4.30;1.30;;;;;;;23.87;42.32;101112.06;4995559;28;20030;-67
2022/06/07 06:31:11;;;;;;;3.03;1.20;;;;;;;23.81;41.56;101113.75;4995292;28;20026;-66
2022/06/07 06:33:38;;;;;;;1.60;1.33;;;;;;;23.85;42.44;101108.69;4995328;28;20026;-67
2022/06/07 06:36:04;;;;;;;2.70;1.10;;;;;;;23.88;41.69;101111.00;4995126;28;20034;-67
2022/06/07 06:38:30;;;;;;;3.08;1.40;;;;;;;23.89;41.83;101113.53;4994734;28;20033;-66
2022/06/07 06:40:56;;;;;;;5.70;1.30;;;;;;;23.92;42.32;101115.00;4994817;28;20026;-67
2022/06/07 06:43:21;;;;;;;5.25;1.10;;;;;;;23.95;41.37;101114.59;4994728;28;20029;-67
2022/06/07 06:45:47;;;;;;;6.00;1.25;;;;;;;23.95;41.88;101109.13;4994686;28;20054;-67
2022/06/07 06:48:13;;;;;;;3.22;1.55;;;;;;;24.03;41.18;101112.50;4998949;28;20033;-67
2022/06/07 06:50:39;;;;;;;4.55;0.88;;;;;;;24.16;41.97;101117.16;5004145;28;20025;-66
2022/06/07 06:53:05;;;;;;;1.85;1.17;;;;;;;24.24;41.40;101119.69;5002975;28;20443;-68
2022/06/07 06:55:31;;;;;;;1.38;1.02;;;;;;;24.31;41.40;101120.53;5002924;28;20030;-67
2022/06/07 06:57:56;;;;;;;1.80;0.98;;;;;;;24.38;41.00;101135.06;5010053;28;20076;-67
2022/06/07 07:00:22;;;;;;;12.93;1.50;;;;;;;24.40;41.50;101135.69;5014182;28;20406;-67
2022/06/07 07:02:48;;;;;;;5.72;1.27;;;;;;;24.36;41.21;101133.59;5029382;28;20045;-67
2022/06/07 07:05:15;;;;;;;4.90;1.55;;;;;;;24.32;41.76;101124.94;5013986;28;20034;-66
2022/06/07 07:07:41;;;;;;;6.47;1.38;;;;;;;24.33;41.42;101129.38;5012970;28;20029;-67
2022/06/07 07:10:08;;;;;;;2.65;0.88;;;;;;;24.33;41.65;101130.22;5029456;28;20029;-67
2022/06/07 07:12:34;;;;;;;1.15;1.00;;;;;;;24.31;41.01;101126.00;5014448;28;20383;-66
2022/06/07 07:15:00;;;;;;;2.13;0.95;;;;;;;24.32;40.93;101123.03;5014107;28;20018;-66
2022/06/07 07:17:25;;;;;;;3.38;0.73;;;;;;;24.36;41.23;101122.63;5029589;28;20052;-67
2022/06/07 07:19:51;;;;;;;1.95;0.80;;;;;;;24.36;40.63;101123.47;5014294;28;20388;-67
2022/06/07 07:22:18;;;;;;;2.55;1.13;;;;;;;24.39;40.92;101123.06;5012637;28;20032;-66
2022/06/07 07:24:44;;;;;;;1.17;0.80;;;;;;;24.47;40.93;101120.09;5013671;28;20095;-66
2022/06/07 07:27:09;;;;;;;2.17;1.00;;;;;;;24.60;41.44;101114.59;5014124;28;20092;-66
2022/06/07 07:29:37;;;;;;;4.03;1.40;;;;;;;24.66;40.70;101113.72;5013902;28;20479;-67
2022/06/07 07:32:03;;;;;;;1.65;1.25;;;;;;;24.74;40.94;101116.25;5012921;28;20033;-66
2022/06/07 07:34:29;;;;;;;3.38;0.85;;;;;;;24.84;40.70;101116.69;5013601;28;20030;-67
2022/06/07 07:36:55;;;;;;;2.63;0.80;;;;;;;24.95;40.35;101112.44;5013845;28;20232;-67
2022/06/07 07:39:21;;;;;;;3.97;1.30;;;;;;;25.04;40.52;101115.78;5014025;28;20494;-67
2022/06/07 07:41:51;;;;;;;6.18;1.17;;;;;;;25.15;40.66;101117.84;5014166;28;20375;-67
2022/06/07 07:44:17;;;;;;;2.90;0.70;;;;;;;25.21;40.73;101116.97;5013943;28;20026;-67
2022/06/07 07:46:43;;;;;;;1.75;0.90;;;;;;;25.29;40.54;101122.22;5013652;28;20080;-67
2022/06/07 07:49:12;;;;;;;0.52;0.52;;;;;;;25.40;40.48;101116.84;5013879;28;20057;-67
2022/06/07 07:51:40;;;;;;;4.20;1.33;;;;;;;25.55;39.76;101116.59;5015952;28;20491;-67
2022/06/07 07:54:07;;;;;;;3.22;0.90;;;;;;;25.68;39.68;101119.28;5032759;28;20390;-67
2022/06/07 07:56:35;;;;;;;3.60;0.50;;;;;;;25.78;39.29;101121.53;5032208;28;20037;-67
2022/06/07 07:59:01;;;;;;;2.30;0.57;;;;;;;25.87;39.56;101106.47;5015432;28;20069;-67
2022/06/07 08:01:28;;;;;;;0.82;0.55;;;;;;;26.05;39.32;101110.13;5017040;28;20495;-67
2022/06/07 08:03:55;;;;;;;5.38;1.33;;;;;;;26.17;39.13;101113.03;5016751;28;20033;-66
2022/06/07 08:06:22;;;;;;;1.38;0.70;;;;;;;26.25;39.01;101103.66;5017057;28;20368;-67
2022/06/07 08:08:50;;;;;;;1.00;0.90;;;;;;;26.35;38.80;101104.00;5016606;28;20022;-67
2022/06/07 08:11:18;;;;;;;3.83;0.90;;;;;;;26.58;38.93;101104.16;5016963;28;20026;-66
2022/06/07 08:13:46;;;;;;;3.35;1.02;;;;;;;26.92;37.74;101105.53;5016462;28;20026;-67
2022/06/07 08:16:12;;;;;;;0.82;0.80;;;;;;;27.16;37.46;101110.09;5016269;28;20034;-67
2022/06/07 08:18:38;;;;;;;3.58;0.90;;;;;;;27.36;37.30;101098.84;5014980;28;20502;-67
2022/06/07 08:21:07;;;;;;;1.60;0.60;;;;;;;27.48;37.79;101102.50;5016194;28;20042;-67
2022/06/07 08:23:32;;;;;;;3.47;0.90;;;;;;;27.52;38.05;101095.47;5016111;28;20026;-67
2022/06/07 08:25:59;;;;;;;2.40;0.82;;;;;;;27.52;37.74;101101.81;5016502;28;20026;-67
2022/06/07 08:28:24;;;;;;;1.55;0.70;;;;;;;27.49;37.13;101094.03;5016302;28;20084;-67
2022/06/07 08:30:50;;;;;;;2.30;0.63;;;;;;;27.54;37.03;101093.31;5016257;28;20034;-66
2022/06/07 08:38:45;;;;;;;1.02;0.60;;;;;;;27.73;36.48;101095.75;5014883;28;20037;-67
2022/06/07 08:41:31;;;;;;;2.00;0.52;;;;;;;27.71;36.22;101088.81;5015891;28;20030;-67
2022/06/07 08:44:02;;;;;;;1.50;0.50;;;;;;;27.75;36.53;101092.75;5015991;28;20104;-68
2022/06/07 08:46:30;;;;;;;2.78;1.25;;;;;;;27.87;36.30;101082.63;5030911;28;20030;-67
2022/06/07 08:48:55;;;;;;;5.35;0.60;;;;;;;27.85;36.40;101090.28;5031021;28;20033;-67
2022/06/07 08:51:26;;;;;;;0.60;0.60;;;;;;;27.87;36.40;101090.03;5015550;28;20037;-67
2022/06/07 08:53:55;;;;;;;0.95;0.50;;;;;;;27.93;36.08;101091.84;5015632;28;20026;-67
2022/06/07 08:56:25;;;;;;;3.58;0.85;;;;;;;28.26;36.75;101098.53;5030633;28;20037;-67
2022/06/07 08:58:54;;;;;;;0.95;0.55;;;;;;;28.44;35.86;101103.09;5015390;28;20042;-67
2022/06/07 09:01:38;;;;;;;3.90;0.77;;;;;;;28.63;36.41;101098.31;5014830;28;20455;-67
2022/06/07 09:04:25;;;;;;;1.65;0.68;;;;;;;28.83;36.24;101098.78;5015986;28;20069;-67
2022/06/07 09:06:57;;;;;;;3.22;0.60;;;;;;;29.23;35.41;101093.31;5016364;28;20375;-67
2022/06/07 09:12:09;;;;;;;4.30;0.88;;;;;;;29.58;34.98;101101.44;5016330;28;20025;-67
2022/06/07 09:12:27;;;;;;;1.75;0.65;;;;;;;29.78;35.01;101093.53;5016060;28;20034;-66
2022/06/07 09:15:16;;;;;;;2.28;0.55;;;;;;;30.18;35.16;101088.72;5015929;28;20014;-67
2022/06/07 09:17:46;;;;;;;1.08;0.70;;;;;;;30.42;34.60;101086.66;5015476;28;20053;-68
2022/06/07 09:20:20;;;;;;;2.25;1.00;;;;;;;30.53;34.24;101074.63;5015134;28;20491;-67
2022/06/07 09:22:53;;;;;;;5.00;0.75;;;;;;;30.53;34.87;101078.25;5015333;28;20022;-67
2022/06/07 09:25:29;;;;;;;2.03;1.20;;;;;;;30.55;34.47;101076.06;5015087;28;20022;-67
2022/06/07 09:27:57;;;;;;;2.70;0.98;;;;;;;30.60;34.21;101077.22;5014331;28;20026;-67
2022/06/07 09:30:34;;;;;;;4.40;0.98;;;;;;;30.68;34.53;101074.88;5014146;28;20041;-68
2022/06/07 09:33:33;;;;;;;3.60;1.10;;;;;;;30.83;34.32;101076.97;5014954;28;20033;-67
2022/06/07 09:36:21;;;;;;;1.05;0.65;;;;;;;31.41;33.48;101073.59;5010967;28;20037;-67
2022/06/07 09:38:51;;;;;;;2.53;0.60;;;;;;;31.35;33.47;101069.88;5013982;28;20460;-67
2022/06/07 09:41:37;;;;;;;2.45;1.00;;;;;;;31.50;33.55;101067.34;5014643;28;20029;-67
2022/06/07 09:44:21;;;;;;;10.27;0.82;;;;;;;31.68;33.50;101075.28;5027710;28;20022;-68
2022/06/07 09:46:57;;;;;;;0.85;0.80;;;;;;;31.77;32.98;101077.56;5014642;28;20026;-67
2022/06/07 09:49:34;;;;;;;0.77;0.57;;;;;;;31.96;33.14;101071.38;5014961;28;20029;-67
2022/06/07 09:52:05;;;;;;;1.23;0.60;;;;;;;32.23;32.81;101065.78;5015016;28;20026;-67
2022/06/07 09:54:31;;;;;;;1.38;0.70;;;;;;;32.58;32.92;101063.25;5014765;28;20028;-67
2022/06/07 09:57:22;;;;;;;1.45;0.60;;;;;;;32.87;32.63;101060.06;5014444;28;20041;-68
2022/06/07 10:00:10;;;;;;;5.93;0.75;;;;;;;33.11;32.37;101055.78;5015077;28;20043;-67
2022/06/07 10:02:44;;;;;;;0.60;0.40;;;;;;;33.20;31.75;101059.69;5014544;28;20018;-68
2022/06/07 10:05:10;;;;;;;0.80;0.60;;;;;;;33.08;31.86;101054.41;5014520;28;20033;-68
2022/06/07 10:07:43;;;;;;;2.65;0.57;;;;;;;32.81;31.37;101054.50;5014340;28;20602;-67
2022/06/07 10:10:11;;;;;;;2.30;1.77;;;;;;;32.57;32.66;101058.84;5029791;28;20425;-67
2022/06/07 10:12:49;;;;;;;1.40;0.82;;;;;;;32.47;32.29;101064.28;5014078;28;20034;-67
2022/06/07 10:15:33;;;;;;;1.52;0.60;;;;;;;32.39;32.09;101062.00;5014242;28;20034;-67
2022/06/07 10:18:07;;;;;;;2.17;0.88;;;;;;;32.32;32.25;101057.81;5012924;28;20022;-67
2022/06/07 10:20:49;;;;;;;1.17;0.80;;;;;;;32.28;32.11;101066.66;5014102;28;20030;-67
2022/06/07 10:23:53;;;;;;;2.17;0.63;;;;;;;32.22;31.60;101056.63;5014200;28;20048;-67
2022/06/07 10:26:50;;;;;;;1.60;0.70;;;;;;;32.07;32.04;101055.69;5004688;28;20045;-67
2022/06/07 10:29:21;;;;;;;1.58;0.60;;;;;;;31.95;32.22;101053.06;5014263;28;20064;-67
2022/06/07 10:32:28;;;;;;;1.55;0.70;;;;;;;31.98;32.06;101046.16;5013910;28;20522;-68
2022/06/07 10:35:15;;;;;;;2.42;0.73;;;;;;;32.16;32.14;101043.00;4937370;29;20114;-68
2022/06/07 10:37:57;;;;;;;4.20;1.05;;;;;;;32.12;32.11;101048.25;5027688;28;20061;-67
2022/06/07 10:40:37;;;;;;;3.35;0.80;;;;;;;32.10;31.63;101044.91;5013945;28;20084;-68
2022/06/07 10:43:16;;;;;;;3.15;1.42;;;;;;;31.84;31.84;101033.84;5027940;28;20064;-67
2022/06/07 10:45:42;;;;;;;3.38;1.17;;;;;;;31.50;32.79;101039.63;5027505;28;20033;-67
2022/06/07 10:48:12;;;;;;;3.58;0.75;;;;;;;31.23;32.97;101044.31;5011072;28;20056;-67
2022/06/07 10:50:43;;;;;;;2.67;0.60;;;;;;;31.03;33.06;101038.53;5012658;28;20112;-67
2022/06/07 10:53:16;;;;;;;1.92;1.05;;;;;;;31.02;32.93;101043.22;5028936;28;20053;-67
2022/06/07 10:55:49;;;;;;;0.82;0.60;;;;;;;31.05;33.46;101050.16;5012394;28;20494;-67
2022/06/07 10:58:25;;;;;;;1.85;0.70;;;;;;;30.90;33.02;101052.75;5012304;28;20106;-67
2022/06/07 11:00:55;;;;;;;4.53;0.60;;;;;;;30.65;33.16;101046.88;5013842;28;20444;-67
2022/06/07 11:03:27;;;;;;;4.25;0.85;;;;;;;30.48;33.71;101050.53;5012373;28;20029;-67
2022/06/07 11:09:20;;;;;;;1.02;0.63;;;;;;;30.17;33.90;101053.03;5012958;28;20087;-67
2022/06/07 11:11:48;;;;;;;5.25;1.70;;;;;;;30.10;34.54;101050.44;5010174;28;20097;-67
2022/06/07 11:14:39;;;;;;;2.85;0.82;;;;;;;30.09;34.04;101059.84;5013612;28;20101;-68
2022/06/07 11:17:29;;;;;;;2.17;1.08;;;;;;;30.05;33.86;101055.88;5010788;28;20088;-67
2022/06/07 11:19:55;;;;;;;1.67;1.08;;;;;;;30.14;34.14;101051.63;5012667;28;20029;-67
2022/06/07 11:22:23;;;;;;;3.20;0.65;;;;;;;30.32;33.80;101059.63;5012140;28;20502;-67
2022/06/07 11:24:55;;;;;;;4.93;1.33;;;;;;;30.48;34.25;101046.91;5029459;28;20032;-68
2022/06/07 11:27:22;;;;;;;1.35;1.25;;;;;;;30.54;34.13;101048.66;5016203;28;20022;-67
2022/06/07 11:29:48;;;;;;;1.20;0.73;;;;;;;30.43;33.54;101044.09;5015959;28;20041;-67
2022/06/07 11:32:39;;;;;;;2.30;0.68;;;;;;;30.23;34.41;101044.59;5032570;28;20490;-68
2022/06/07 11:35:46;;;;;;;1.25;0.80;;;;;;;30.01;34.98;101051.97;5017696;28;20026;-67
2022/06/07 11:38:17;;;;;;;0.60;0.60;;;;;;;29.70;35.38;101061.63;5017650;28;20029;-68
2022/06/07 11:40:43;;;;;;;2.60;1.15;;;;;;;29.43;36.54;101066.94;5018041;28;20026;-67
2022/06/07 11:43:46;;;;;;;2.92;0.60;;;;;;;29.03;37.23;101071.63;5016445;28;20025;-67
2022/06/07 11:46:21;;;;;;;4.05;1.10;;;;;;;28.63;38.06;101070.75;5017371;28;20483;-67
2022/06/07 11:48:47;;;;;;;1.55;0.45;;;;;;;28.38;37.29;101078.41;5017245;28;20092;-67
2022/06/07 11:51:14;;;;;;;1.38;0.50;;;;;;;28.12;38.46;101069.53;5017031;28;20025;-67
2022/06/07 11:54:00;;;;;;;1.50;0.93;;;;;;;27.96;38.83;101066.59;5032245;28;20025;-67